sensor_id;sensor_type;location;lat;lon;timestamp;pressure;altitude;pressure_sealevel;temperature;humidity
51807;BME280;37865;51.304;9.536;2023-07-30T00:01:21;99258.28;;;17.81;94.97
51807;BME280;37865;51.304;9.536;2023-07-30T00:03:46;99260.03;;;17.77;95.27
51807;BME280;37865;51.304;9.536;2023-07-30T00:06:12;99255.16;;;17.74;95.46
51807;BME280;37865;51.304;9.536;2023-07-30T00:08:37;99265.69;;;17.72;95.52
51807;BME280;37865;51.304;9.536;2023-07-30T00:11:02;99266.31;;;17.69;95.91
51807;BME280;37865;51.304;9.536;2023-07-30T00:13:28;99271.13;;;17.63;96.00
51807;BME280;37865;51.304;9.536;2023-07-30T00:15:53;99276.94;;;17.62;96.39
51807;BME280;37865;51.304;9.536;2023-07-30T00:18:18;99281.44;;;17.58;96.55
51807;BME280;37865;51.304;9.536;2023-07-30T00:20:43;99281.28;;;17.54;96.66
51807;BME280;37865;51.304;9.536;2023-07-30T00:23:09;99288.53;;;17.50;97.00
51807;BME280;37865;51.304;9.536;2023-07-30T00:25:34;99294.06;;;17.50;97.29
51807;BME280;37865;51.304;9.536;2023-07-30T00:28:00;99281.09;;;17.51;97.48
51807;BME280;37865;51.304;9.536;2023-07-30T00:30:25;99280.28;;;17.50;97.36
51807;BME280;37865;51.304;9.536;2023-07-30T00:32:50;99289.66;;;17.49;97.34
51807;BME280;37865;51.304;9.536;2023-07-30T00:35:16;99289.75;;;17.44;97.88
51807;BME280;37865;51.304;9.536;2023-07-30T00:37:41;99288.84;;;17.35;98.13
51807;BME280;37865;51.304;9.536;2023-07-30T00:40:07;99291.34;;;17.23;99.11
51807;BME280;37865;51.304;9.536;2023-07-30T00:42:32;99287.16;;;17.12;99.60
51807;BME280;37865;51.304;9.536;2023-07-30T00:44:58;99288.22;;;17.03;100.00
51807;BME280;37865;51.304;9.536;2023-07-30T00:47:23;99294.47;;;16.95;100.00
51807;BME280;37865;51.304;9.536;2023-07-30T00:49:49;99289.88;;;16.90;100.00
51807;BME280;37865;51.304;9.536;2023-07-30T00:52:16;99294.97;;;16.83;100.00
51807;BME280;37865;51.304;9.536;2023-07-30T00:54:43;99291.50;;;16.77;100.00
51807;BME280;37865;51.304;9.536;2023-07-30T00:57:09;99285.91;;;16.69;100.00
51807;BME280;37865;51.304;9.536;2023-07-30T00:59:35;99287.13;;;16.63;100.00
51807;BME280;37865;51.304;9.536;2023-07-30T01:02:00;99290.59;;;16.55;100.00
51807;BME280;37865;51.304;9.536;2023-07-30T01:04:27;99297.59;;;16.47;100.00
51807;BME280;37865;51.304;9.536;2023-07-30T01:06:52;99298.00;;;16.41;100.00
51807;BME280;37865;51.304;9.536;2023-07-30T01:09:18;99305.00;;;16.33;100.00
51807;BME280;37865;51.304;9.536;2023-07-30T01:11:44;99296.34;;;16.26;100.00
51807;BME280;37865;51.304;9.536;2023-07-30T01:14:10;99296.44;;;16.21;100.00
51807;BME280;37865;51.304;9.536;2023-07-30T01:16:36;99303.44;;;16.14;100.00
51807;BME280;37865;51.304;9.536;2023-07-30T01:19:01;99301.59;;;16.09;100.00
51807;BME280;37865;51.304;9.536;2023-07-30T01:21:32;99312.16;;;16.02;100.00
51807;BME280;37865;51.304;9.536;2023-07-30T01:23:57;99300.13;;;15.98;100.00
51807;BME280;37865;51.304;9.536;2023-07-30T01:26:24;99311.44;;;15.96;100.00
51807;BME280;37865;51.304;9.536;2023-07-30T01:28:54;99302.38;;;15.96;100.00
51807;BME280;37865;51.304;9.536;2023-07-30T01:31:25;99306.25;;;15.95;100.00
51807;BME280;37865;51.304;9.536;2023-07-30T01:33:54;99304.59;;;15.94;100.00
51807;BME280;37865;51.304;9.536;2023-07-30T01:36:20;99303.78;;;15.93;100.00
51807;BME280;37865;51.304;9.536;2023-07-30T01:38:47;99306.53;;;15.93;100.00
51807;BME280;37865;51.304;9.536;2023-07-30T01:41:14;99315.09;;;15.92;100.00
51807;BME280;37865;51.304;9.536;2023-07-30T01:43:39;99312.13;;;15.88;100.00
51807;BME280;37865;51.304;9.536;2023-07-30T01:46:04;99314.88;;;15.88;100.00
51807;BME280;37865;51.304;9.536;2023-07-30T01:48:30;99321.22;;;15.89;100.00
51807;BME280;37865;51.304;9.536;2023-07-30T01:50:55;99326.72;;;15.89;100.00
51807;BME280;37865;51.304;9.536;2023-07-30T01:53:20;99331.38;;;15.88;100.00
51807;BME280;37865;51.304;9.536;2023-07-30T01:55:46;99339.13;;;15.86;100.00
51807;BME280;37865;51.304;9.536;2023-07-30T01:58:14;99336.69;;;15.85;100.00
51807;BME280;37865;51.304;9.536;2023-07-30T02:00:40;99326.25;;;15.82;100.00
51807;BME280;37865;51.304;9.536;2023-07-30T02:03:06;99329.06;;;15.77;100.00
51807;BME280;37865;51.304;9.536;2023-07-30T02:05:31;99340.16;;;15.72;100.00
51807;BME280;37865;51.304;9.536;2023-07-30T02:07:57;99338.31;;;15.67;100.00
51807;BME280;37865;51.304;9.536;2023-07-30T02:10:24;99340.34;;;15.62;100.00
51807;BME280;37865;51.304;9.536;2023-07-30T02:12:49;99340.69;;;15.55;100.00
51807;BME280;37865;51.304;9.536;2023-07-30T02:15:15;99343.00;;;15.48;100.00
51807;BME280;37865;51.304;9.536;2023-07-30T02:17:40;99344.94;;;15.48;100.00
51807;BME280;37865;51.304;9.536;2023-07-30T02:20:06;99343.00;;;15.48;100.00
51807;BME280;37865;51.304;9.536;2023-07-30T02:22:31;99346.03;;;15.47;100.00
51807;BME280;37865;51.304;9.536;2023-07-30T02:24:57;99345.22;;;15.46;100.00
51807;BME280;37865;51.304;9.536;2023-07-30T02:27:22;99354.50;;;15.50;100.00
51807;BME280;37865;51.304;9.536;2023-07-30T02:29:48;99344.53;;;15.54;100.00
51807;BME280;37865;51.304;9.536;2023-07-30T02:32:13;99350.81;;;15.60;100.00
51807;BME280;37865;51.304;9.536;2023-07-30T02:34:38;99345.00;;;15.61;100.00
51807;BME280;37865;51.304;9.536;2023-07-30T02:37:04;99352.94;;;15.63;100.00
51807;BME280;37865;51.304;9.536;2023-07-30T02:39:29;99347.03;;;15.56;100.00
51807;BME280;37865;51.304;9.536;2023-07-30T02:41:54;99346.88;;;15.47;100.00
51807;BME280;37865;51.304;9.536;2023-07-30T02:44:20;99350.84;;;15.36;100.00
51807;BME280;37865;51.304;9.536;2023-07-30T02:46:45;99348.75;;;15.28;100.00
51807;BME280;37865;51.304;9.536;2023-07-30T02:49:10;99360.41;;;15.20;100.00
51807;BME280;37865;51.304;9.536;2023-07-30T02:51:36;99352.00;;;15.11;100.00
51807;BME280;37865;51.304;9.536;2023-07-30T02:54:04;99362.69;;;15.13;100.00
51807;BME280;37865;51.304;9.536;2023-07-30T02:56:30;99374.25;;;15.10;100.00
51807;BME280;37865;51.304;9.536;2023-07-30T02:58:57;99359.19;;;15.07;100.00
51807;BME280;37865;51.304;9.536;2023-07-30T03:01:22;99371.78;;;15.08;100.00
51807;BME280;37865;51.304;9.536;2023-07-30T03:03:47;99366.91;;;15.05;100.00
51807;BME280;37865;51.304;9.536;2023-07-30T03:06:13;99376.53;;;15.03;100.00
51807;BME280;37865;51.304;9.536;2023-07-30T03:08:39;99372.44;;;15.00;100.00
51807;BME280;37865;51.304;9.536;2023-07-30T03:11:04;99375.13;;;15.05;100.00
51807;BME280;37865;51.304;9.536;2023-07-30T03:13:29;99375.06;;;15.10;100.00
51807;BME280;37865;51.304;9.536;2023-07-30T03:15:55;99378.81;;;15.19;100.00
51807;BME280;37865;51.304;9.536;2023-07-30T03:18:20;99373.41;;;15.33;100.00
51807;BME280;37865;51.304;9.536;2023-07-30T03:20:45;99383.41;;;15.48;100.00
51807;BME280;37865;51.304;9.536;2023-07-30T03:23:11;99386.59;;;15.55;100.00
51807;BME280;37865;51.304;9.536;2023-07-30T03:25:36;99385.66;;;15.64;100.00
51807;BME280;37865;51.304;9.536;2023-07-30T03:28:01;99390.75;;;15.71;100.00
51807;BME280;37865;51.304;9.536;2023-07-30T03:30:26;99394.25;;;15.76;100.00
51807;BME280;37865;51.304;9.536;2023-07-30T03:32:52;99396.13;;;15.81;100.00
51807;BME280;37865;51.304;9.536;2023-07-30T03:35:18;99389.63;;;15.90;100.00
51807;BME280;37865;51.304;9.536;2023-07-30T03:37:43;99397.50;;;15.97;100.00
51807;BME280;37865;51.304;9.536;2023-07-30T03:40:09;99390.59;;;15.99;100.00
51807;BME280;37865;51.304;9.536;2023-07-30T03:42:34;99393.03;;;16.01;100.00
51807;BME280;37865;51.304;9.536;2023-07-30T03:44:59;99415.56;;;16.03;100.00
51807;BME280;37865;51.304;9.536;2023-07-30T03:47:25;99414.75;;;16.02;100.00
51807;BME280;37865;51.304;9.536;2023-07-30T03:49:50;99403.75;;;16.02;100.00
51807;BME280;37865;51.304;9.536;2023-07-30T03:52:15;99415.06;;;16.01;100.00
51807;BME280;37865;51.304;9.536;2023-07-30T03:54:42;99416.66;;;16.02;100.00
51807;BME280;37865;51.304;9.536;2023-07-30T03:57:07;99410.88;;;16.03;100.00
51807;BME280;37865;51.304;9.536;2023-07-30T03:59:33;99407.22;;;16.08;100.00
51807;BME280;37865;51.304;9.536;2023-07-30T04:01:58;99411.31;;;16.10;100.00
51807;BME280;37865;51.304;9.536;2023-07-30T04:04:24;99403.56;;;16.13;100.00
51807;BME280;37865;51.304;9.536;2023-07-30T04:06:49;99413.16;;;16.15;100.00
51807;BME280;37865;51.304;9.536;2023-07-30T04:09:14;99410.94;;;16.17;100.00
51807;BME280;37865;51.304;9.536;2023-07-30T04:11:39;99405.13;;;16.19;100.00
51807;BME280;37865;51.304;9.536;2023-07-30T04:14:05;99404.84;;;16.20;100.00
51807;BME280;37865;51.304;9.536;2023-07-30T04:16:33;99404.22;;;16.23;100.00
51807;BME280;37865;51.304;9.536;2023-07-30T04:18:58;99410.56;;;16.24;100.00
51807;BME280;37865;51.304;9.536;2023-07-30T04:21:24;99405.25;;;16.27;100.00
51807;BME280;37865;51.304;9.536;2023-07-30T04:23:49;99414.25;;;16.33;100.00
51807;BME280;37865;51.304;9.536;2023-07-30T04:26:14;99415.28;;;16.37;100.00
51807;BME280;37865;51.304;9.536;2023-07-30T04:28:40;99419.34;;;16.39;100.00
51807;BME280;37865;51.304;9.536;2023-07-30T04:31:06;99420.41;;;16.43;100.00
51807;BME280;37865;51.304;9.536;2023-07-30T04:33:31;99425.59;;;16.45;100.00
51807;BME280;37865;51.304;9.536;2023-07-30T04:35:57;99429.69;;;16.47;100.00
51807;BME280;37865;51.304;9.536;2023-07-30T04:38:22;99434.91;;;16.49;100.00
51807;BME280;37865;51.304;9.536;2023-07-30T04:40:48;99432.59;;;16.56;100.00
51807;BME280;37865;51.304;9.536;2023-07-30T04:43:13;99435.25;;;16.61;100.00
51807;BME280;37865;51.304;9.536;2023-07-30T04:45:39;99437.41;;;16.64;100.00
51807;BME280;37865;51.304;9.536;2023-07-30T04:48:05;99434.03;;;16.67;100.00
51807;BME280;37865;51.304;9.536;2023-07-30T04:50:30;99432.94;;;16.68;100.00
51807;BME280;37865;51.304;9.536;2023-07-30T04:52:55;99427.44;;;16.68;100.00
51807;BME280;37865;51.304;9.536;2023-07-30T04:55:21;99437.00;;;16.70;100.00
51807;BME280;37865;51.304;9.536;2023-07-30T04:57:46;99425.72;;;16.72;100.00
51807;BME280;37865;51.304;9.536;2023-07-30T05:00:12;99428.97;;;16.74;100.00
51807;BME280;37865;51.304;9.536;2023-07-30T05:02:37;99436.34;;;16.78;100.00
51807;BME280;37865;51.304;9.536;2023-07-30T05:05:03;99424.69;;;16.81;100.00
51807;BME280;37865;51.304;9.536;2023-07-30T05:07:28;99432.88;;;16.86;100.00
51807;BME280;37865;51.304;9.536;2023-07-30T05:09:53;99428.38;;;16.91;100.00
51807;BME280;37865;51.304;9.536;2023-07-30T05:12:19;99423.28;;;16.98;100.00
51807;BME280;37865;51.304;9.536;2023-07-30T05:14:44;99422.38;;;17.02;100.00
51807;BME280;37865;51.304;9.536;2023-07-30T05:17:09;99425.03;;;17.07;100.00
51807;BME280;37865;51.304;9.536;2023-07-30T05:19:34;99416.66;;;17.12;100.00
51807;BME280;37865;51.304;9.536;2023-07-30T05:22:00;99420.16;;;17.18;100.00
51807;BME280;37865;51.304;9.536;2023-07-30T05:24:26;99421.16;;;17.22;100.00
51807;BME280;37865;51.304;9.536;2023-07-30T05:26:52;99419.75;;;17.24;100.00
51807;BME280;37865;51.304;9.536;2023-07-30T05:29:17;99417.69;;;17.30;100.00
51807;BME280;37865;51.304;9.536;2023-07-30T05:31:42;99414.00;;;17.34;100.00
51807;BME280;37865;51.304;9.536;2023-07-30T05:34:08;99420.22;;;17.40;100.00
51807;BME280;37865;51.304;9.536;2023-07-30T05:36:33;99429.50;;;17.44;100.00
51807;BME280;37865;51.304;9.536;2023-07-30T05:38:58;99431.94;;;17.45;100.00
51807;BME280;37865;51.304;9.536;2023-07-30T05:41:23;99422.66;;;17.41;100.00
51807;BME280;37865;51.304;9.536;2023-07-30T05:43:49;99419.00;;;17.46;100.00
51807;BME280;37865;51.304;9.536;2023-07-30T05:46:14;99423.63;;;17.50;100.00
51807;BME280;37865;51.304;9.536;2023-07-30T05:48:39;99410.75;;;17.59;99.49
51807;BME280;37865;51.304;9.536;2023-07-30T05:51:05;99422.16;;;17.66;98.47
51807;BME280;37865;51.304;9.536;2023-07-30T05:53:30;99415.38;;;17.73;97.70
51807;BME280;37865;51.304;9.536;2023-07-30T05:55:55;99417.72;;;17.79;97.41
51807;BME280;37865;51.304;9.536;2023-07-30T05:58:21;99410.34;;;17.88;96.52
51807;BME280;37865;51.304;9.536;2023-07-30T06:00:46;99406.84;;;17.96;95.84
51807;BME280;37865;51.304;9.536;2023-07-30T06:03:11;99408.88;;;18.04;94.45
51807;BME280;37865;51.304;9.536;2023-07-30T06:05:40;99407.00;;;18.13;93.36
51807;BME280;37865;51.304;9.536;2023-07-30T06:08:06;99398.78;;;18.22;92.10
51807;BME280;37865;51.304;9.536;2023-07-30T06:10:37;99403.22;;;18.31;91.19
51807;BME280;37865;51.304;9.536;2023-07-30T06:13:03;99401.97;;;18.37;89.42
51807;BME280;37865;51.304;9.536;2023-07-30T06:15:29;99406.75;;;18.45;88.75
51807;BME280;37865;51.304;9.536;2023-07-30T06:17:54;99414.16;;;18.59;87.20
51807;BME280;37865;51.304;9.536;2023-07-30T06:20:20;99410.84;;;18.79;85.94
51807;BME280;37865;51.304;9.536;2023-07-30T06:22:45;99405.25;;;18.92;84.28
51807;BME280;37865;51.304;9.536;2023-07-30T06:25:10;99409.38;;;19.12;83.21
51807;BME280;37865;51.304;9.536;2023-07-30T06:27:36;99410.25;;;19.30;82.70
51807;BME280;37865;51.304;9.536;2023-07-30T06:30:01;99414.25;;;19.46;81.27
51807;BME280;37865;51.304;9.536;2023-07-30T06:32:26;99405.50;;;19.61;80.02
51807;BME280;37865;51.304;9.536;2023-07-30T06:34:51;99406.50;;;19.73;78.37
51807;BME280;37865;51.304;9.536;2023-07-30T06:37:17;99406.19;;;19.83;76.42
51807;BME280;37865;51.304;9.536;2023-07-30T06:39:42;99405.34;;;19.91;75.16
51807;BME280;37865;51.304;9.536;2023-07-30T06:42:08;99403.91;;;20.02;73.47
51807;BME280;37865;51.304;9.536;2023-07-30T06:44:34;99407.97;;;20.14;73.01
51807;BME280;37865;51.304;9.536;2023-07-30T06:46:59;99414.34;;;20.23;71.74
51807;BME280;37865;51.304;9.536;2023-07-30T06:49:25;99410.91;;;20.26;71.16
51807;BME280;37865;51.304;9.536;2023-07-30T06:51:50;99403.91;;;20.37;70.00
51807;BME280;37865;51.304;9.536;2023-07-30T06:54:15;99417.41;;;20.47;69.16
51807;BME280;37865;51.304;9.536;2023-07-30T06:56:40;99423.41;;;20.66;68.57
51807;BME280;37865;51.304;9.536;2023-07-30T06:59:06;99431.84;;;20.78;67.49
51807;BME280;37865;51.304;9.536;2023-07-30T07:01:31;99436.25;;;20.79;67.02
51807;BME280;37865;51.304;9.536;2023-07-30T07:03:56;99435.94;;;20.63;67.46
51807;BME280;37865;51.304;9.536;2023-07-30T07:06:22;99440.69;;;20.63;67.74
51807;BME280;37865;51.304;9.536;2023-07-30T07:08:47;99441.97;;;20.65;67.53
51807;BME280;37865;51.304;9.536;2023-07-30T07:11:12;99434.81;;;20.64;67.51
51807;BME280;37865;51.304;9.536;2023-07-30T07:13:38;99443.47;;;20.63;67.85
51807;BME280;37865;51.304;9.536;2023-07-30T07:16:03;99446.72;;;20.65;68.36
51807;BME280;37865;51.304;9.536;2023-07-30T07:18:29;99438.91;;;20.67;68.15
51807;BME280;37865;51.304;9.536;2023-07-30T07:20:54;99438.56;;;20.68;67.99
51807;BME280;37865;51.304;9.536;2023-07-30T07:23:19;99436.25;;;20.79;67.36
51807;BME280;37865;51.304;9.536;2023-07-30T07:25:45;99430.00;;;20.91;66.69
51807;BME280;37865;51.304;9.536;2023-07-30T07:28:10;99437.19;;;21.00;66.72
51807;BME280;37865;51.304;9.536;2023-07-30T07:30:36;99436.13;;;21.22;66.23
51807;BME280;37865;51.304;9.536;2023-07-30T07:33:04;99429.22;;;21.36;65.10
51807;BME280;37865;51.304;9.536;2023-07-30T07:35:31;99426.91;;;21.38;64.54
51807;BME280;37865;51.304;9.536;2023-07-30T07:37:57;99419.13;;;21.32;nan
51807;BME280;37865;51.304;9.536;2023-07-30T07:40:22;99418.94;;;21.37;64.97
51807;BME280;37865;51.304;9.536;2023-07-30T07:42:48;99416.31;;;21.40;65.20
51807;BME280;37865;51.304;9.536;2023-07-30T07:45:13;99419.38;;;21.47;65.87
51807;BME280;37865;51.304;9.536;2023-07-30T07:47:38;99423.88;;;21.60;65.39
51807;BME280;37865;51.304;9.536;2023-07-30T07:50:05;99415.28;;;21.74;64.76
51807;BME280;37865;51.304;9.536;2023-07-30T07:52:30;99429.63;;;21.76;64.10
51807;BME280;37865;51.304;9.536;2023-07-30T07:54:56;99433.06;;;21.73;64.16
51807;BME280;37865;51.304;9.536;2023-07-30T07:57:21;99427.34;;;21.78;64.17
51807;BME280;37865;51.304;9.536;2023-07-30T07:59:46;99443.84;;;21.83;63.83
51807;BME280;37865;51.304;9.536;2023-07-30T08:02:12;99445.09;;;21.86;64.19
51807;BME280;37865;51.304;9.536;2023-07-30T08:04:37;99456.69;;;21.88;63.90
51807;BME280;37865;51.304;9.536;2023-07-30T08:07:03;99459.50;;;21.79;63.75
51807;BME280;37865;51.304;9.536;2023-07-30T08:09:29;99449.06;;;21.76;63.23
51807;BME280;37865;51.304;9.536;2023-07-30T08:11:55;99450.72;;;21.77;63.34
51807;BME280;37865;51.304;9.536;2023-07-30T08:14:20;99447.88;;;21.86;62.86
51807;BME280;37865;51.304;9.536;2023-07-30T08:16:45;99454.72;;;21.88;62.36
51807;BME280;37865;51.304;9.536;2023-07-30T08:19:11;99456.38;;;21.81;62.81
51807;BME280;37865;51.304;9.536;2023-07-30T08:21:36;99445.47;;;21.76;62.64
51807;BME280;37865;51.304;9.536;2023-07-30T08:24:02;99444.19;;;21.73;62.88
51807;BME280;37865;51.304;9.536;2023-07-30T08:26:27;99448.13;;;21.72;63.04
51807;BME280;37865;51.304;9.536;2023-07-30T08:28:52;99445.38;;;21.63;63.03
51807;BME280;37865;51.304;9.536;2023-07-30T08:31:18;99445.78;;;21.53;62.99
51807;BME280;37865;51.304;9.536;2023-07-30T08:33:43;99443.00;;;21.53;63.06
51807;BME280;37865;51.304;9.536;2023-07-30T08:36:08;99432.38;;;21.55;62.88
51807;BME280;37865;51.304;9.536;2023-07-30T08:38:34;99440.69;;;21.55;62.96
51807;BME280;37865;51.304;9.536;2023-07-30T08:40:59;99436.53;;;21.41;62.91
51807;BME280;37865;51.304;9.536;2023-07-30T08:43:25;99439.56;;;21.27;63.31
51807;BME280;37865;51.304;9.536;2023-07-30T08:45:50;99445.78;;;21.16;63.54
51807;BME280;37865;51.304;9.536;2023-07-30T08:48:15;99439.63;;;21.02;64.25
51807;BME280;37865;51.304;9.536;2023-07-30T08:50:41;99439.81;;;20.88;64.65
51807;BME280;37865;51.304;9.536;2023-07-30T08:53:07;99437.56;;;20.81;64.77
51807;BME280;37865;51.304;9.536;2023-07-30T08:55:33;99434.13;;;20.76;65.17
51807;BME280;37865;51.304;9.536;2023-07-30T08:58:03;99433.00;;;20.77;65.64
51807;BME280;37865;51.304;9.536;2023-07-30T09:00:34;99436.75;;;20.81;66.13
51807;BME280;37865;51.304;9.536;2023-07-30T09:03:03;99438.84;;;20.84;65.84
51807;BME280;37865;51.304;9.536;2023-07-30T09:05:29;99436.91;;;20.67;65.80
51807;BME280;37865;51.304;9.536;2023-07-30T09:07:55;99442.19;;;20.52;66.67
51807;BME280;37865;51.304;9.536;2023-07-30T09:10:20;99454.38;;;20.42;67.25
51807;BME280;37865;51.304;9.536;2023-07-30T09:12:52;99456.19;;;20.13;70.31
51807;BME280;37865;51.304;9.536;2023-07-30T09:15:19;99446.50;;;19.67;73.63
51807;BME280;37865;51.304;9.536;2023-07-30T09:17:45;99461.97;;;19.29;76.37
51807;BME280;37865;51.304;9.536;2023-07-30T09:20:10;99464.31;;;19.05;79.26
51807;BME280;37865;51.304;9.536;2023-07-30T09:22:36;99480.47;;;18.89;81.61
51807;BME280;37865;51.304;9.536;2023-07-30T09:25:04;99483.94;;;18.73;83.65
51807;BME280;37865;51.304;9.536;2023-07-30T09:27:31;99490.47;;;18.55;85.06
51807;BME280;37865;51.304;9.536;2023-07-30T09:29:59;99492.47;;;18.40;86.55
51807;BME280;37865;51.304;9.536;2023-07-30T09:32:30;99496.75;;;18.33;88.42
51807;BME280;37865;51.304;9.536;2023-07-30T09:35:06;99497.31;;;18.21;89.86
51807;BME280;37865;51.304;9.536;2023-07-30T09:37:36;99493.97;;;18.11;91.81
51807;BME280;37865;51.304;9.536;2023-07-30T09:40:04;99498.59;;;18.02;92.89
51807;BME280;37865;51.304;9.536;2023-07-30T09:42:30;99504.34;;;17.92;93.83
51807;BME280;37865;51.304;9.536;2023-07-30T09:44:58;99497.72;;;17.79;94.15
51807;BME280;37865;51.304;9.536;2023-07-30T09:47:26;99497.09;;;17.68;94.58
51807;BME280;37865;51.304;9.536;2023-07-30T09:49:52;99495.91;;;17.61;95.10
51807;BME280;37865;51.304;9.536;2023-07-30T09:52:18;99514.50;;;17.55;95.88
51807;BME280;37865;51.304;9.536;2023-07-30T09:54:44;99504.38;;;17.51;97.04
51807;BME280;37865;51.304;9.536;2023-07-30T09:57:10;99504.94;;;17.48;97.71
51807;BME280;37865;51.304;9.536;2023-07-30T09:59:35;99512.72;;;17.46;98.49
51807;BME280;37865;51.304;9.536;2023-07-30T10:02:00;99512.13;;;17.49;98.75
51807;BME280;37865;51.304;9.536;2023-07-30T10:04:26;99509.63;;;17.47;99.08
51807;BME280;37865;51.304;9.536;2023-07-30T10:06:57;99518.22;;;17.46;99.04
51807;BME280;37865;51.304;9.536;2023-07-30T10:09:26;99505.25;;;17.46;99.64
51807;BME280;37865;51.304;9.536;2023-07-30T10:11:52;99514.34;;;17.47;99.80
51807;BME280;37865;51.304;9.536;2023-07-30T10:14:22;99506.59;;;17.49;100.00
51807;BME280;37865;51.304;9.536;2023-07-30T10:16:55;99513.66;;;17.55;100.00
51807;BME280;37865;51.304;9.536;2023-07-30T10:19:28;99508.34;;;17.58;100.00
51807;BME280;37865;51.304;9.536;2023-07-30T10:24:40;99504.69;;;17.63;100.00
51807;BME280;37865;51.304;9.536;2023-07-30T10:27:09;99517.75;;;17.71;100.00
51807;BME280;37865;51.304;9.536;2023-07-30T10:29:40;99516.50;;;17.77;100.00
51807;BME280;37865;51.304;9.536;2023-07-30T10:32:07;99520.09;;;17.78;100.00
51807;BME280;37865;51.304;9.536;2023-07-30T10:34:46;99519.59;;;17.76;100.00
51807;BME280;37865;51.304;9.536;2023-07-30T10:37:18;99520.41;;;17.76;100.00
51807;BME280;37865;51.304;9.536;2023-07-30T10:39:43;99533.69;;;17.74;100.00
51807;BME280;37865;51.304;9.536;2023-07-30T10:42:09;99523.44;;;17.75;100.00
51807;BME280;37865;51.304;9.536;2023-07-30T10:44:34;99532.53;;;17.75;100.00
51807;BME280;37865;51.304;9.536;2023-07-30T10:47:02;99535.94;;;17.72;100.00
51807;BME280;37865;51.304;9.536;2023-07-30T10:49:28;99547.47;;;17.60;100.00
51807;BME280;37865;51.304;9.536;2023-07-30T10:51:55;99555.03;;;17.55;100.00
51807;BME280;37865;51.304;9.536;2023-07-30T10:54:22;99558.38;;;17.52;100.00
51807;BME280;37865;51.304;9.536;2023-07-30T10:56:47;99559.38;;;17.42;100.00
51807;BME280;37865;51.304;9.536;2023-07-30T10:59:14;99553.81;;;17.29;100.00
51807;BME280;37865;51.304;9.536;2023-07-30T11:01:42;99554.22;;;17.22;100.00
51807;BME280;37865;51.304;9.536;2023-07-30T11:06:34;99563.41;;;17.18;100.00
51807;BME280;37865;51.304;9.536;2023-07-30T11:08:59;99567.84;;;17.00;100.00
51807;BME280;37865;51.304;9.536;2023-07-30T11:11:25;99567.88;;;16.81;100.00
51807;BME280;37865;51.304;9.536;2023-07-30T11:13:50;99574.47;;;16.67;100.00
51807;BME280;37865;51.304;9.536;2023-07-30T11:16:16;99574.81;;;16.60;100.00
51807;BME280;37865;51.304;9.536;2023-07-30T11:18:42;99578.19;;;16.57;100.00
51807;BME280;37865;51.304;9.536;2023-07-30T11:21:10;99573.47;;;16.58;100.00
51807;BME280;37865;51.304;9.536;2023-07-30T11:23:37;99575.66;;;16.61;100.00
51807;BME280;37865;51.304;9.536;2023-07-30T11:26:03;99575.06;;;16.64;100.00
51807;BME280;37865;51.304;9.536;2023-07-30T11:28:37;99580.16;;;16.70;100.00
51807;BME280;37865;51.304;9.536;2023-07-30T11:33:33;99571.81;;;16.94;100.00
51807;BME280;37865;51.304;9.536;2023-07-30T11:36:00;99583.41;;;17.10;100.00
51807;BME280;37865;51.304;9.536;2023-07-30T11:38:27;99577.72;;;17.20;100.00
51807;BME280;37865;51.304;9.536;2023-07-30T11:40:53;99572.53;;;17.32;100.00
51807;BME280;37865;51.304;9.536;2023-07-30T11:43:20;99574.53;;;17.58;100.00
51807;BME280;37865;51.304;9.536;2023-07-30T11:45:46;99564.53;;;17.76;100.00
51807;BME280;37865;51.304;9.536;2023-07-30T11:48:11;99567.88;;;18.00;100.00
51807;BME280;37865;51.304;9.536;2023-07-30T11:51:06;99570.72;;;18.09;96.23
51807;BME280;37865;51.304;9.536;2023-07-30T11:53:51;99571.25;;;18.11;95.11
51807;BME280;37865;51.304;9.536;2023-07-30T11:56:21;99568.91;;;18.04;95.18
51807;BME280;37865;51.304;9.536;2023-07-30T11:58:47;99583.84;;;18.03;95.24
51807;BME280;37865;51.304;9.536;2023-07-30T12:01:17;99572.06;;;18.11;95.65
51807;BME280;37865;51.304;9.536;2023-07-30T12:03:43;99573.59;;;18.17;93.99
51807;BME280;37865;51.304;9.536;2023-07-30T12:06:09;99580.81;;;18.27;93.69
51807;BME280;37865;51.304;9.536;2023-07-30T12:08:35;99574.13;;;18.41;92.55
51807;BME280;37865;51.304;9.536;2023-07-30T12:11:08;99574.19;;;18.64;89.31
51807;BME280;37865;51.304;9.536;2023-07-30T12:13:42;99572.31;;;18.95;88.35
51807;BME280;37865;51.304;9.536;2023-07-30T12:16:08;99568.03;;;19.33;87.08
51807;BME280;37865;51.304;9.536;2023-07-30T12:18:33;99574.38;;;19.64;83.80
51807;BME280;37865;51.304;9.536;2023-07-30T12:20:59;99570.25;;;19.92;82.68
51807;BME280;37865;51.304;9.536;2023-07-30T12:23:24;99577.63;;;20.05;79.20
51807;BME280;37865;51.304;9.536;2023-07-30T12:25:51;99562.06;;;20.27;79.28
51807;BME280;37865;51.304;9.536;2023-07-30T12:28:16;99571.69;;;20.55;78.62
51807;BME280;37865;51.304;9.536;2023-07-30T12:30:42;99571.22;;;20.70;74.58
51807;BME280;37865;51.304;9.536;2023-07-30T12:33:07;99558.81;;;20.84;72.91
51807;BME280;37865;51.304;9.536;2023-07-30T12:35:33;99576.59;;;21.09;72.57
51807;BME280;37865;51.304;9.536;2023-07-30T12:37:59;99559.56;;;21.45;71.39
51807;BME280;37865;51.304;9.536;2023-07-30T12:40:25;99559.97;;;21.64;69.97
51807;BME280;37865;51.304;9.536;2023-07-30T12:42:50;99556.53;;;21.67;69.20
51807;BME280;37865;51.304;9.536;2023-07-30T12:45:16;99557.22;;;21.64;69.14
51807;BME280;37865;51.304;9.536;2023-07-30T12:47:41;99570.50;;;21.41;65.88
51807;BME280;37865;51.304;9.536;2023-07-30T12:50:07;99563.34;;;21.32;67.51
51807;BME280;37865;51.304;9.536;2023-07-30T12:52:33;99569.09;;;21.01;66.30
51807;BME280;37865;51.304;9.536;2023-07-30T12:54:59;99571.72;;;20.72;67.06
51807;BME280;37865;51.304;9.536;2023-07-30T12:57:25;99576.13;;;20.73;67.99